ADDS TAF Data INFO
IDs: Format: Raw Decoded Include METARs

Data at: 1812 UTC 24 Jun 2018

KPGV 241725Z 2418/2518 25010KT P6SM VCTS SCT060CB
  FM250800 26006KT P6SM SCT070 AMD LTD TO CLD VIS AND WIND